createdAt,value
2019-05-18T00:01:00.931Z,11.50
2019-05-18T00:03:30.314Z,11.40
2019-05-18T00:05:59.725Z,11.40
2019-05-18T00:08:29.077Z,11.30
2019-05-18T00:10:58.418Z,11.30
2019-05-18T00:13:27.883Z,11.20
2019-05-18T00:15:57.228Z,11.20
2019-05-18T00:18:26.638Z,11.20
2019-05-18T00:20:55.999Z,11.20
2019-05-18T00:23:25.384Z,11.20
2019-05-18T00:25:54.731Z,11.10
2019-05-18T00:28:24.088Z,11.10
2019-05-18T00:30:53.457Z,11.10
2019-05-18T00:33:22.880Z,11.10
2019-05-18T00:35:52.302Z,11.00
2019-05-18T00:38:21.695Z,11.00
2019-05-18T00:40:51.296Z,11.00
2019-05-18T00:43:20.704Z,10.90
2019-05-18T00:45:50.069Z,10.90
2019-05-18T00:48:19.436Z,10.80
2019-05-18T00:50:48.801Z,10.80
2019-05-18T00:53:18.182Z,10.80
2019-05-18T00:55:47.556Z,10.70
2019-05-18T00:58:16.908Z,10.70
2019-05-18T01:00:46.363Z,10.70
2019-05-18T01:03:15.877Z,10.60
2019-05-18T01:05:45.286Z,10.60
2019-05-18T01:08:14.699Z,10.60
2019-05-18T01:10:44.736Z,10.60
2019-05-18T01:13:14.056Z,10.60
2019-05-18T01:15:43.429Z,10.60
2019-05-18T01:18:12.767Z,10.50
2019-05-18T01:20:42.252Z,10.50
2019-05-18T01:23:11.654Z,10.50
2019-05-18T01:25:41.044Z,10.40
2019-05-18T01:28:10.427Z,10.40
2019-05-18T01:30:39.793Z,10.40
2019-05-18T01:33:09.117Z,10.40
2019-05-18T01:35:38.494Z,10.40
2019-05-18T01:38:07.840Z,10.30
2019-05-18T01:40:37.215Z,10.30
2019-05-18T01:43:06.786Z,10.30
2019-05-18T01:45:36.136Z,10.20
2019-05-18T01:48:14.230Z,10.20
2019-05-18T01:50:36.633Z,10.20
2019-05-18T01:53:05.959Z,10.20
2019-05-18T01:55:35.427Z,10.20
2019-05-18T01:58:04.793Z,10.10
2019-05-18T02:00:34.140Z,10.10
2019-05-18T02:03:03.472Z,10.00
2019-05-18T02:05:32.877Z,10.00
2019-05-18T02:08:02.196Z,9.90
2019-05-18T02:10:31.633Z,9.90
2019-05-18T02:13:01.029Z,9.90
2019-05-18T02:15:30.347Z,9.80
2019-05-18T02:17:59.725Z,9.80
2019-05-18T02:20:29.096Z,9.80
2019-05-18T02:22:58.678Z,9.80
2019-05-18T02:25:28.142Z,9.80
2019-05-18T02:27:57.525Z,9.80
2019-05-18T02:30:26.922Z,9.70
2019-05-18T02:32:56.272Z,9.70
2019-05-18T02:35:25.605Z,9.70
2019-05-18T02:37:56.955Z,9.70
2019-05-18T02:40:26.285Z,9.60
2019-05-18T02:42:55.645Z,9.60
2019-05-18T02:45:25.025Z,9.60
2019-05-18T02:47:54.381Z,9.50
2019-05-18T02:50:23.721Z,9.50
2019-05-18T02:52:53.117Z,9.50
2019-05-18T02:55:22.491Z,9.50
2019-05-18T02:57:51.885Z,9.50
2019-05-18T03:00:21.348Z,9.40
2019-05-18T03:02:50.710Z,9.40
2019-05-18T03:05:20.063Z,9.30
2019-05-18T03:07:49.480Z,9.30
2019-05-18T03:10:19.159Z,9.30
2019-05-18T03:12:48.529Z,9.30
2019-05-18T03:15:18.047Z,9.30
2019-05-18T03:17:47.502Z,9.20
2019-05-18T03:20:17.053Z,9.20
2019-05-18T03:22:46.435Z,9.20
2019-05-18T03:25:15.811Z,9.20
2019-05-18T03:27:45.157Z,9.10
2019-05-18T03:30:14.734Z,9.10
2019-05-18T03:32:44.073Z,9.10
2019-05-18T03:35:13.447Z,9.10
2019-05-18T03:37:42.909Z,9.10
2019-05-18T03:40:12.400Z,9.00
2019-05-18T03:42:41.745Z,9.00
2019-05-18T03:45:11.282Z,9.00
2019-05-18T03:47:40.623Z,8.90
2019-05-18T03:50:10.312Z,8.90
2019-05-18T03:52:39.716Z,8.90
2019-05-18T03:55:09.295Z,8.90
2019-05-18T03:57:38.685Z,8.90
2019-05-18T04:00:08.839Z,8.90
2019-05-18T04:02:38.286Z,8.90
2019-05-18T04:05:07.776Z,8.90
2019-05-18T04:07:37.138Z,8.90
2019-05-18T04:10:07.199Z,8.80
2019-05-18T04:12:36.616Z,8.80
2019-05-18T04:15:06.469Z,8.80
2019-05-18T04:17:35.918Z,8.80
2019-05-18T04:20:05.617Z,8.80
2019-05-18T04:22:35.036Z,8.80
2019-05-18T04:25:04.387Z,8.80
2019-05-18T04:27:33.746Z,8.80
2019-05-18T04:30:03.111Z,8.80
2019-05-18T04:32:32.474Z,8.80
2019-05-18T04:35:01.902Z,8.80
2019-05-18T04:37:31.361Z,8.80
2019-05-18T04:40:00.784Z,8.80
2019-05-18T04:42:30.206Z,8.80
2019-05-18T04:44:59.558Z,8.90
2019-05-18T04:47:28.935Z,8.90
2019-05-18T04:50:05.377Z,8.90
2019-05-18T04:52:29.365Z,8.90
2019-05-18T04:54:58.751Z,8.90
2019-05-18T04:57:28.084Z,9.00
2019-05-18T04:59:57.481Z,9.00
2019-05-18T05:02:26.826Z,9.00
2019-05-18T05:04:56.834Z,9.10
2019-05-18T05:07:26.386Z,9.10
2019-05-18T05:09:55.721Z,9.10
2019-05-18T05:12:25.065Z,9.20
2019-05-18T05:14:54.374Z,9.20
2019-05-18T05:17:23.728Z,9.20
2019-05-18T05:19:53.049Z,9.30
2019-05-18T05:22:22.399Z,9.40
2019-05-18T05:24:51.809Z,9.40
2019-05-18T05:27:21.347Z,9.50
2019-05-18T05:29:50.882Z,9.50
2019-05-18T05:32:20.567Z,9.60
2019-05-18T05:34:49.896Z,9.70
2019-05-18T05:37:19.324Z,9.80
2019-05-18T05:39:48.903Z,9.90
2019-05-18T05:42:18.573Z,10.00
2019-05-18T05:44:47.985Z,10.00
2019-05-18T05:47:17.440Z,10.20
2019-05-18T05:49:46.885Z,10.30
2019-05-18T05:52:16.538Z,10.40
2019-05-18T05:54:45.990Z,10.50
2019-05-18T05:57:15.510Z,10.60
2019-05-18T05:59:48.176Z,10.70
2019-05-18T06:02:17.684Z,10.80
2019-05-18T06:04:47.177Z,10.90
2019-05-18T06:07:16.641Z,11.00
2019-05-18T06:09:46.214Z,11.10
2019-05-18T06:12:15.622Z,11.30
2019-05-18T06:14:45.057Z,11.40
2019-05-18T06:17:14.481Z,11.50
2019-05-18T06:19:43.832Z,11.60
2019-05-18T06:22:15.103Z,11.70
2019-05-18T06:24:44.531Z,11.80
2019-05-18T06:27:13.920Z,11.90
2019-05-18T06:29:43.298Z,12.00
2019-05-18T06:32:12.680Z,12.20
2019-05-18T06:34:42.015Z,12.30
2019-05-18T06:37:11.387Z,12.40
2019-05-18T06:39:40.936Z,12.50
2019-05-18T06:42:10.951Z,12.60
2019-05-18T06:44:40.569Z,12.70
2019-05-18T06:47:09.880Z,12.80
2019-05-18T06:49:39.256Z,13.00
2019-05-18T06:52:08.585Z,13.00
2019-05-18T06:54:37.932Z,13.10
2019-05-18T06:57:08.009Z,13.30
2019-05-18T06:59:38.701Z,13.40
2019-05-18T07:02:08.018Z,13.50
2019-05-18T07:04:37.391Z,13.60
2019-05-18T07:07:06.717Z,13.70
2019-05-18T07:09:36.097Z,13.80
2019-05-18T07:12:05.535Z,13.90
2019-05-18T07:14:34.941Z,13.90
2019-05-18T07:17:04.321Z,14.00
2019-05-18T07:19:33.626Z,14.10
2019-05-18T07:22:02.950Z,14.20
2019-05-18T07:24:32.300Z,14.30
2019-05-18T07:27:01.671Z,14.50
2019-05-18T07:29:31.118Z,14.50
2019-05-18T07:32:00.475Z,14.70
2019-05-18T07:34:29.826Z,14.70
2019-05-18T07:36:59.196Z,14.80
2019-05-18T07:39:28.508Z,15.00
2019-05-18T07:41:57.893Z,15.10
2019-05-18T07:44:28.805Z,15.20
2019-05-18T07:46:58.200Z,15.30
2019-05-18T07:49:27.527Z,15.40
2019-05-18T07:51:56.878Z,15.50
2019-05-18T07:54:26.296Z,15.60
2019-05-18T07:56:55.642Z,15.70
2019-05-18T07:59:24.961Z,15.70
2019-05-18T08:01:54.358Z,15.80
2019-05-18T08:04:23.711Z,15.90
2019-05-18T08:06:53.193Z,16.00
2019-05-18T08:09:23.932Z,16.00
2019-05-18T08:11:53.320Z,16.10
2019-05-18T08:14:22.710Z,16.20
2019-05-18T08:16:52.209Z,16.30
2019-05-18T08:19:21.641Z,16.40
2019-05-18T08:21:53.469Z,16.50
2019-05-18T08:24:22.078Z,16.60
2019-05-18T08:26:51.454Z,16.70
2019-05-18T08:29:20.839Z,16.80
2019-05-18T08:31:50.197Z,16.90
2019-05-18T08:34:19.621Z,17.10
2019-05-18T08:36:49.047Z,17.20
2019-05-18T08:39:18.419Z,17.30
2019-05-18T08:41:48.827Z,17.40
2019-05-18T08:44:18.569Z,17.60
2019-05-18T08:46:47.952Z,17.70
2019-05-18T08:49:17.319Z,17.80
2019-05-18T08:51:46.688Z,17.90
2019-05-18T08:54:16.194Z,18.10
2019-05-18T08:56:45.678Z,18.10
2019-05-18T08:59:15.068Z,18.20
2019-05-18T09:01:44.396Z,18.30
2019-05-18T09:04:19.111Z,18.40
2019-05-18T09:06:48.494Z,18.50
2019-05-18T09:09:17.885Z,18.60
2019-05-18T09:11:47.953Z,18.70
2019-05-18T09:14:20.018Z,18.80
2019-05-18T09:16:50.323Z,18.90
2019-05-18T09:19:21.862Z,19.00
2019-05-18T09:21:57.988Z,19.00
2019-05-18T09:24:28.458Z,19.20
2019-05-18T09:27:01.133Z,19.20
2019-05-18T09:29:33.889Z,19.30
2019-05-18T09:32:03.543Z,19.40
2019-05-18T09:34:34.662Z,19.50
2019-05-18T09:37:04.265Z,19.60
2019-05-18T09:39:34.265Z,19.70
2019-05-18T09:42:03.899Z,19.70
2019-05-18T09:44:33.712Z,19.80
2019-05-18T09:47:03.869Z,19.90
2019-05-18T09:49:33.698Z,19.90
2019-05-18T09:52:06.352Z,20.00
2019-05-18T09:54:36.405Z,20.10
2019-05-18T09:57:09.975Z,20.20
2019-05-18T09:59:39.301Z,20.30
2019-05-18T10:02:08.676Z,20.40
2019-05-18T10:04:38.119Z,20.50
2019-05-18T10:07:07.525Z,20.60
2019-05-18T10:09:39.170Z,20.60
2019-05-18T10:12:07.914Z,20.60
2019-05-18T10:14:37.244Z,20.70
2019-05-18T10:17:06.586Z,20.80
2019-05-18T10:19:35.916Z,20.90
2019-05-18T10:22:05.249Z,21.00
2019-05-18T10:24:34.557Z,21.20
2019-05-18T10:27:03.930Z,21.30
2019-05-18T10:29:33.394Z,21.40
2019-05-18T10:32:02.727Z,21.50
2019-05-18T10:34:32.068Z,21.60
2019-05-18T10:37:01.393Z,21.60
2019-05-18T10:39:30.740Z,21.70
2019-05-18T10:42:00.129Z,21.70
2019-05-18T10:44:29.461Z,21.80
2019-05-18T10:46:58.828Z,21.90
2019-05-18T10:49:28.167Z,21.90
2019-05-18T10:51:57.464Z,22.00
2019-05-18T10:54:26.816Z,22.00
2019-05-18T10:56:56.176Z,22.00
2019-05-18T10:59:25.490Z,22.10
2019-05-18T11:01:54.822Z,22.30
2019-05-18T11:04:24.296Z,22.40
2019-05-18T11:06:54.104Z,22.40
2019-05-18T11:09:23.432Z,22.50
2019-05-18T11:11:52.847Z,22.60
2019-05-18T11:14:22.209Z,22.70
2019-05-18T11:16:51.553Z,22.70
2019-05-18T11:19:20.903Z,22.70
2019-05-18T11:21:50.468Z,22.70
2019-05-18T11:24:19.876Z,22.70
2019-05-18T11:26:49.204Z,22.80
2019-05-18T11:29:22.731Z,22.80
2019-05-18T11:31:49.582Z,22.90
2019-05-18T11:34:18.967Z,22.90
2019-05-18T11:36:48.285Z,23.00
2019-05-18T11:39:17.642Z,23.10
2019-05-18T11:41:46.965Z,23.20
2019-05-18T11:44:16.341Z,23.30
2019-05-18T11:46:45.690Z,23.40
2019-05-18T11:49:15.108Z,23.50
2019-05-18T11:51:44.453Z,23.50
2019-05-18T11:54:13.899Z,23.60
2019-05-18T11:56:43.422Z,23.60
2019-05-18T11:59:15.590Z,23.70
2019-05-18T12:01:43.910Z,23.70
2019-05-18T12:04:13.244Z,23.80
2019-05-18T12:06:42.571Z,23.80
2019-05-18T12:09:11.874Z,23.90
2019-05-18T12:11:41.235Z,23.90
2019-05-18T12:14:10.548Z,24.00
2019-05-18T12:16:39.904Z,24.00
2019-05-18T12:19:09.350Z,24.10
2019-05-18T12:21:38.671Z,24.10
2019-05-18T12:24:15.424Z,24.20
2019-05-18T12:26:39.272Z,24.20
2019-05-18T12:29:08.812Z,24.30
2019-05-18T12:31:38.546Z,24.40
2019-05-18T12:34:08.377Z,24.40
2019-05-18T12:36:37.949Z,24.50
2019-05-18T12:39:07.763Z,24.50
2019-05-18T12:41:37.477Z,24.60
2019-05-18T12:44:06.999Z,24.60
2019-05-18T12:46:36.715Z,24.60
2019-05-18T12:49:06.393Z,24.60
2019-05-18T12:51:36.048Z,24.60
2019-05-18T12:54:06.047Z,24.70
2019-05-18T12:56:35.618Z,24.70
2019-05-18T12:59:05.536Z,24.70
2019-05-18T13:01:35.254Z,24.70
2019-05-18T13:04:04.915Z,24.80
2019-05-18T13:06:34.259Z,24.90
2019-05-18T13:09:06.010Z,25.00
2019-05-18T13:11:35.510Z,25.00
2019-05-18T13:14:05.060Z,25.00
2019-05-18T13:16:34.684Z,25.00
2019-05-18T13:19:04.251Z,25.10
2019-05-18T13:21:33.858Z,25.20
2019-05-18T13:24:03.381Z,25.20
2019-05-18T13:26:32.943Z,25.20
2019-05-18T13:29:02.505Z,25.30
2019-05-18T13:31:31.844Z,25.30
2019-05-18T13:34:01.392Z,25.30
2019-05-18T13:36:30.903Z,25.30
2019-05-18T13:39:00.446Z,25.40
2019-05-18T13:41:30.246Z,25.50
2019-05-18T13:43:59.673Z,25.60
2019-05-18T13:46:29.261Z,25.60
2019-05-18T13:48:58.781Z,25.60
2019-05-18T13:51:28.328Z,25.70
2019-05-18T13:53:57.857Z,25.70
2019-05-18T13:56:27.573Z,25.70
2019-05-18T13:58:57.182Z,25.70
2019-05-18T14:01:26.659Z,25.60
2019-05-18T14:03:56.240Z,25.60
2019-05-18T14:06:25.853Z,25.60
2019-05-18T14:08:55.361Z,25.60
2019-05-18T14:11:24.902Z,25.70
2019-05-18T14:13:54.480Z,25.70
2019-05-18T14:16:23.923Z,25.80
2019-05-18T14:18:53.558Z,25.80
2019-05-18T14:21:22.984Z,25.90
2019-05-18T14:23:52.551Z,26.00
2019-05-18T14:26:22.220Z,26.10
2019-05-18T14:28:51.813Z,26.10
2019-05-18T14:31:21.361Z,26.20
2019-05-18T14:33:50.995Z,26.20
2019-05-18T14:36:20.309Z,26.20
2019-05-18T14:38:49.656Z,26.30
2019-05-18T14:41:19.119Z,26.40
2019-05-18T14:43:48.629Z,26.40
2019-05-18T14:46:18.078Z,26.50
2019-05-18T14:48:47.421Z,26.40
2019-05-18T14:51:16.789Z,26.50
2019-05-18T14:53:46.436Z,26.60
2019-05-18T14:56:15.920Z,26.70
2019-05-18T14:58:45.393Z,26.80
2019-05-18T15:01:14.995Z,26.70
2019-05-18T15:03:44.622Z,26.70
2019-05-18T15:06:14.133Z,26.60
2019-05-18T15:08:43.580Z,26.60
2019-05-18T15:11:13.135Z,26.50
2019-05-18T15:13:42.731Z,26.40
2019-05-18T15:16:12.319Z,26.30
2019-05-18T15:18:41.896Z,26.30
2019-05-18T15:21:11.555Z,26.30
2019-05-18T15:23:41.200Z,26.40
2019-05-18T15:26:10.753Z,26.40
2019-05-18T15:28:40.382Z,26.40
2019-05-18T15:31:09.969Z,26.30
2019-05-18T15:33:39.541Z,26.20
2019-05-18T15:36:09.064Z,26.20
2019-05-18T15:38:38.714Z,26.00
2019-05-18T15:41:08.422Z,25.90
2019-05-18T15:43:37.919Z,25.90
2019-05-18T15:46:07.385Z,25.80
2019-05-18T15:48:36.910Z,25.90
2019-05-18T15:51:06.509Z,25.80
2019-05-18T15:53:36.065Z,25.70
2019-05-18T15:56:06.498Z,25.60
2019-05-18T15:58:35.871Z,25.50
2019-05-18T16:01:05.194Z,25.40
2019-05-18T16:03:34.609Z,25.30
2019-05-18T16:06:03.935Z,25.10
2019-05-18T16:08:36.365Z,24.90
2019-05-18T16:11:05.676Z,24.80
2019-05-18T16:13:34.988Z,24.70
2019-05-18T16:16:04.336Z,24.60
2019-05-18T16:18:34.265Z,24.60
2019-05-18T16:21:03.658Z,24.60
2019-05-18T16:23:33.093Z,24.50
2019-05-18T16:26:02.453Z,24.50
2019-05-18T16:28:31.782Z,24.50
2019-05-18T16:31:01.120Z,24.50
2019-05-18T16:33:30.473Z,24.50
2019-05-18T16:35:59.858Z,24.40
2019-05-18T16:38:29.226Z,24.40
2019-05-18T16:40:58.540Z,24.30
2019-05-18T16:43:27.901Z,24.30
2019-05-18T16:45:57.204Z,24.20
2019-05-18T16:48:26.572Z,24.20
2019-05-18T16:50:55.939Z,24.10
2019-05-18T16:53:25.331Z,24.00
2019-05-18T16:55:54.646Z,24.00
2019-05-18T16:58:24.055Z,23.90
2019-05-18T17:00:53.390Z,23.90
2019-05-18T17:03:22.733Z,23.80
2019-05-18T17:05:52.140Z,23.70
2019-05-18T17:08:21.503Z,23.70
2019-05-18T17:10:50.817Z,23.60
2019-05-18T17:13:20.169Z,23.50
2019-05-18T17:15:49.514Z,23.50
2019-05-18T17:18:18.901Z,23.40
2019-05-18T17:20:48.353Z,23.40
2019-05-18T17:23:17.705Z,23.40
2019-05-18T17:25:47.065Z,23.30
2019-05-18T17:28:16.437Z,23.20
2019-05-18T17:30:46.345Z,23.20
2019-05-18T17:33:15.663Z,23.10
2019-05-18T17:35:59.436Z,23.10
2019-05-18T17:38:16.085Z,23.00
2019-05-18T17:40:45.505Z,23.00
2019-05-18T17:43:14.840Z,22.90
2019-05-18T17:45:44.292Z,22.80
2019-05-18T17:48:13.656Z,22.80
2019-05-18T17:50:43.017Z,22.70
2019-05-18T17:53:12.380Z,22.70
2019-05-18T17:55:41.758Z,22.60
2019-05-18T17:58:11.083Z,22.50
2019-05-18T18:00:40.466Z,22.50
2019-05-18T18:03:09.874Z,22.40
2019-05-18T18:05:39.261Z,22.40
2019-05-18T18:08:08.695Z,22.40
2019-05-18T18:10:38.051Z,22.30
2019-05-18T18:13:09.507Z,22.30
2019-05-18T18:15:38.472Z,22.20
2019-05-18T18:18:07.853Z,22.10
2019-05-18T18:20:37.475Z,22.10
2019-05-18T18:23:09.901Z,22.00
2019-05-18T18:25:41.729Z,21.90
2019-05-18T18:31:27.038Z,21.80
2019-05-18T18:33:56.681Z,21.70
2019-05-18T18:36:26.163Z,21.60
2019-05-18T18:38:55.744Z,21.60
2019-05-18T18:41:25.219Z,21.50
2019-05-18T18:43:54.719Z,21.40
2019-05-18T18:46:24.149Z,21.40
2019-05-18T18:48:53.582Z,21.30
2019-05-18T18:51:23.204Z,21.20
2019-05-18T18:53:52.984Z,21.10
2019-05-18T18:56:22.487Z,21.00
2019-05-18T18:58:51.941Z,21.00
2019-05-18T19:01:21.303Z,20.90
2019-05-18T19:03:50.699Z,20.80
2019-05-18T19:06:20.209Z,20.80
2019-05-18T19:08:49.635Z,20.80
2019-05-18T19:11:19.032Z,20.70
2019-05-18T19:13:48.404Z,20.70
2019-05-18T19:16:17.856Z,20.70
2019-05-18T19:18:47.270Z,20.60
2019-05-18T19:21:16.674Z,20.60
2019-05-18T19:23:46.066Z,20.50
2019-05-18T19:26:15.433Z,20.40
2019-05-18T19:28:44.883Z,20.40
2019-05-18T19:31:14.263Z,20.30
2019-05-18T19:33:43.740Z,20.20
2019-05-18T19:36:13.197Z,20.10
2019-05-18T19:38:42.590Z,20.10
2019-05-18T19:41:11.997Z,20.00
2019-05-18T19:43:41.561Z,20.00
2019-05-18T19:46:11.085Z,19.90
2019-05-18T19:48:40.518Z,19.90
2019-05-18T19:51:09.958Z,19.80
2019-05-18T19:53:39.517Z,19.80
2019-05-18T19:56:10.733Z,19.70
2019-05-18T19:58:40.171Z,19.70
2019-05-18T20:01:09.668Z,19.60
2019-05-18T20:03:39.271Z,19.60
2019-05-18T20:06:08.830Z,19.50
2019-05-18T20:08:38.348Z,19.50
2019-05-18T20:11:08.226Z,19.40
2019-05-18T20:13:38.247Z,19.40
2019-05-18T20:16:08.045Z,19.30
2019-05-18T20:18:37.801Z,19.30
2019-05-18T20:21:07.476Z,19.20
2019-05-18T20:23:39.703Z,19.20
2019-05-18T20:26:09.168Z,19.10
2019-05-18T20:28:38.801Z,19.10
2019-05-18T20:31:08.821Z,19.00
2019-05-18T20:33:38.489Z,18.90
2019-05-18T20:36:08.028Z,18.90
2019-05-18T20:38:37.549Z,18.80
2019-05-18T20:41:07.051Z,18.70
2019-05-18T20:43:36.977Z,18.70
2019-05-18T20:46:06.561Z,18.70
2019-05-18T20:48:36.228Z,18.60
2019-05-18T20:51:05.832Z,18.60
2019-05-18T20:53:35.334Z,18.50
2019-05-18T20:56:04.930Z,18.40
2019-05-18T20:58:40.184Z,18.40
2019-05-18T21:01:05.480Z,18.30
2019-05-18T21:03:34.903Z,18.30
2019-05-18T21:06:04.634Z,18.20
2019-05-18T21:08:34.119Z,18.10
2019-05-18T21:11:03.569Z,18.00
2019-05-18T21:13:33.098Z,18.00
2019-05-18T21:16:02.719Z,18.00
2019-05-18T21:18:32.419Z,17.90
2019-05-18T21:21:01.979Z,17.80
2019-05-18T21:23:31.779Z,17.80
2019-05-18T21:26:01.533Z,17.80
2019-05-18T21:28:31.057Z,17.70
2019-05-18T21:31:00.778Z,17.60
2019-05-18T21:33:30.333Z,17.60
2019-05-18T21:36:00.156Z,17.60
2019-05-18T21:38:29.727Z,17.50
2019-05-18T21:40:59.394Z,17.40
2019-05-18T21:43:28.860Z,17.40
2019-05-18T21:45:58.309Z,17.30
2019-05-18T21:48:27.796Z,17.30
2019-05-18T21:50:57.289Z,17.20
2019-05-18T21:53:26.722Z,17.20
2019-05-18T21:55:56.150Z,17.10
2019-05-18T21:58:25.794Z,17.00
2019-05-18T22:00:55.304Z,16.90
2019-05-18T22:03:24.704Z,16.90
2019-05-18T22:05:54.211Z,16.80
2019-05-18T22:08:23.855Z,16.80
2019-05-18T22:10:53.339Z,16.70
2019-05-18T22:13:22.664Z,16.70
2019-05-18T22:15:52.095Z,16.60
2019-05-18T22:18:24.475Z,16.50
2019-05-18T22:20:52.653Z,16.50
2019-05-18T22:23:22.090Z,16.40
2019-05-18T22:25:51.494Z,16.40
2019-05-18T22:28:20.861Z,16.30
2019-05-18T22:30:50.201Z,16.30
2019-05-18T22:33:19.548Z,16.30
2019-05-18T22:35:48.892Z,16.20
2019-05-18T22:38:18.340Z,16.20
2019-05-18T22:40:47.712Z,16.10
2019-05-18T22:43:17.099Z,16.00
2019-05-18T22:45:46.417Z,16.00
2019-05-18T22:48:15.754Z,16.00
2019-05-18T22:50:45.203Z,15.90
2019-05-18T22:53:14.558Z,15.90
2019-05-18T22:55:43.912Z,15.80
2019-05-18T22:58:13.289Z,15.70
2019-05-18T23:00:42.655Z,15.70
2019-05-18T23:03:12.011Z,15.60
2019-05-18T23:05:41.351Z,15.60
2019-05-18T23:08:10.719Z,15.50
2019-05-18T23:10:40.110Z,15.50
2019-05-18T23:13:09.502Z,15.50
2019-05-18T23:15:38.884Z,15.40
2019-05-18T23:18:08.236Z,15.40
2019-05-18T23:20:37.576Z,15.40
2019-05-18T23:23:07.005Z,15.30
2019-05-18T23:25:36.386Z,15.30
2019-05-18T23:28:05.762Z,15.20
2019-05-18T23:30:36.901Z,15.20
2019-05-18T23:33:06.274Z,15.10
2019-05-18T23:35:35.701Z,15.10
2019-05-18T23:38:05.009Z,15.00
2019-05-18T23:40:34.381Z,15.00
2019-05-18T23:43:03.695Z,15.00
2019-05-18T23:45:33.173Z,14.90
2019-05-18T23:48:02.528Z,14.90
2019-05-18T23:50:31.951Z,14.80
2019-05-18T23:53:01.334Z,14.80
2019-05-18T23:55:30.767Z,14.80
2019-05-18T23:58:05.116Z,14.70
